Time;durP1;ratioP1;P1;durP2;ratioP2;P2;SDS_P1;SDS_P2;PMS_P1;PMS_P2;Temp;Humidity;BMP_temperature;BMP_pressure;BME280_temperature;BME280_humidity;BME280_pressure;Samples;Min_cycle;Max_cycle;Signal;HPM_P1;HPM_P2
2023/06/29 00:01:55;;;;;;;8.40;5.60;;;19.60;99.90;;;;;;5088867;28;20399;-68
2023/06/29 00:04:25;;;;;;;12.50;5.70;;;19.60;99.90;;;;;;5087898;28;21080;-69
2023/06/29 00:06:52;;;;;;;7.50;6.33;;;19.60;99.90;;;;;;5088874;28;20422;-68
2023/06/29 00:09:19;;;;;;;7.07;5.53;;;19.60;99.90;;;;;;5088797;28;20888;-69
2023/06/29 00:11:45;;;;;;;8.27;5.83;;;19.60;99.90;;;;;;5088722;28;20450;-68
2023/06/29 00:14:11;;;;;;;9.20;5.63;;;19.60;99.90;;;;;;5087835;28;20421;-68
2023/06/29 00:16:36;;;;;;;7.37;5.80;;;19.60;99.90;;;;;;5088740;28;20406;-69
2023/06/29 00:19:02;;;;;;;7.77;6.27;;;19.60;99.90;;;;;;5088716;28;20701;-68
2023/06/29 00:21:28;;;;;;;6.63;5.93;;;19.60;99.90;;;;;;5088764;28;20282;-68
2023/06/29 00:23:54;;;;;;;8.57;6.10;;;19.60;99.90;;;;;;5087914;28;20259;-68
2023/06/29 00:26:20;;;;;;;12.50;5.70;;;19.60;99.90;;;;;;5087401;28;20403;-68
2023/06/29 00:28:46;;;;;;;7.50;5.33;;;19.60;99.90;;;;;;5094935;28;20417;-69
2023/06/29 00:31:13;;;;;;;5.87;5.30;;;19.50;99.90;;;;;;5108892;28;20510;-69
2023/06/29 00:33:38;;;;;;;7.90;5.80;;;19.50;99.90;;;;;;5107982;28;20199;-68
2023/06/29 00:36:04;;;;;;;6.33;5.70;;;19.50;99.90;;;;;;5108896;28;20406;-69
2023/06/29 00:38:30;;;;;;;7.70;5.70;;;19.50;99.90;;;;;;5109052;28;20215;-68
2023/06/29 00:40:55;;;;;;;6.90;5.53;;;19.50;99.90;;;;;;5109080;28;20276;-69
2023/06/29 00:43:21;;;;;;;6.27;5.37;;;19.40;99.90;;;;;;5107819;28;20171;-68
2023/06/29 00:45:47;;;;;;;8.17;5.27;;;19.40;99.90;;;;;;5108884;28;20182;-68
2023/06/29 00:48:12;;;;;;;7.60;5.30;;;19.50;99.90;;;;;;5108771;28;20176;-69
2023/06/29 00:50:40;;;;;;;9.70;5.90;;;19.40;99.90;;;;;;5108689;28;20221;-68
2023/06/29 00:53:06;;;;;;;6.23;5.50;;;19.40;99.90;;;;;;5107787;28;20176;-67
2023/06/29 00:55:32;;;;;;;6.93;5.47;;;19.40;99.90;;;;;;5108654;28;20406;-69
2023/06/29 00:57:58;;;;;;;9.07;5.20;;;19.50;99.90;;;;;;5100088;28;20418;-68
2023/06/29 01:00:23;;;;;;;7.57;5.57;;;19.40;99.90;;;;;;5091967;28;20444;-69
2023/06/29 01:02:50;;;;;;;7.17;5.80;;;19.50;99.90;;;;;;5091419;28;20626;-68
2023/06/29 01:05:16;;;;;;;7.13;5.10;;;19.50;99.90;;;;;;5091758;28;20216;-68
2023/06/29 01:08:07;;;;;;;9.90;5.37;;;19.50;99.90;;;;;;5092207;28;20417;-68
2023/06/29 01:10:34;;;;;;;6.23;5.30;;;19.50;99.90;;;;;;5091933;28;20553;-68
2023/06/29 01:13:02;;;;;;;6.50;5.70;;;19.40;99.90;;;;;;5091171;28;20402;-69
2023/06/29 01:15:28;;;;;;;6.70;5.17;;;19.50;99.90;;;;;;5091882;28;20414;-69
2023/06/29 01:17:58;;;;;;;8.87;6.13;;;19.50;99.90;;;;;;5091835;28;20446;-68
2023/06/29 01:20:25;;;;;;;8.07;6.47;;;19.50;99.90;;;;;;5091864;28;20863;-69
2023/06/29 01:23:08;;;;;;;6.80;5.30;;;19.50;99.90;;;;;;5091092;28;20471;-68
2023/06/29 01:25:36;;;;;;;5.83;5.17;;;19.50;99.90;;;;;;5091760;28;20912;-67
2023/06/29 01:28:09;;;;;;;7.43;6.03;;;19.40;99.90;;;;;;5091666;28;20415;-68
2023/06/29 01:30:45;;;;;;;8.77;5.60;;;19.30;99.90;;;;;;5111985;28;20453;-68
2023/06/29 01:33:11;;;;;;;6.70;6.00;;;19.30;99.90;;;;;;5111082;28;20412;-68
2023/06/29 01:35:37;;;;;;;7.40;5.40;;;19.30;99.90;;;;;;5110724;28;20405;-68
2023/06/29 01:38:13;;;;;;;7.90;6.10;;;19.30;99.90;;;;;;5111936;28;20402;-68
2023/06/29 01:40:44;;;;;;;7.13;6.07;;;19.30;99.90;;;;;;5110222;28;21177;-68
2023/06/29 01:43:10;;;;;;;7.50;6.23;;;19.30;99.90;;;;;;5110836;28;20406;-68
2023/06/29 01:45:36;;;;;;;8.20;6.00;;;19.40;99.90;;;;;;5111856;28;20905;-69
2023/06/29 01:48:03;;;;;;;8.73;6.57;;;19.40;99.90;;;;;;5111785;28;20262;-68
2023/06/29 01:50:30;;;;;;;7.73;6.03;;;19.50;99.90;;;;;;5111519;28;20453;-67
2023/06/29 01:52:55;;;;;;;7.13;5.67;;;19.40;99.90;;;;;;5110868;28;20459;-68
2023/06/29 01:55:21;;;;;;;11.87;6.63;;;19.40;99.90;;;;;;5111362;28;20406;-68
2023/06/29 01:57:47;;;;;;;6.83;6.23;;;19.40;99.90;;;;;;5103718;28;20544;-69
2023/06/29 02:00:13;;;;;;;6.53;5.57;;;19.40;99.90;;;;;;5091135;28;20196;-68
2023/06/29 02:02:39;;;;;;;6.70;5.70;;;19.30;99.90;;;;;;5090404;28;20184;-67
2023/06/29 02:05:05;;;;;;;10.17;6.23;;;19.20;99.90;;;;;;5090694;28;20453;-69
2023/06/29 02:07:31;;;;;;;7.50;5.40;;;19.20;99.90;;;;;;5091011;28;20253;-68
2023/06/29 02:09:56;;;;;;;8.17;6.27;;;19.20;99.90;;;;;;5090460;28;20454;-68
2023/06/29 02:12:22;;;;;;;8.10;6.67;;;19.10;99.90;;;;;;5090198;28;20271;-69
2023/06/29 02:14:47;;;;;;;8.60;5.83;;;19.20;99.90;;;;;;5090292;28;20317;-68
2023/06/29 02:17:13;;;;;;;7.80;6.10;;;19.20;99.90;;;;;;5090599;28;20172;-68
2023/06/29 02:19:39;;;;;;;7.13;6.03;;;19.10;99.90;;;;;;5089461;28;20880;-68
2023/06/29 02:22:04;;;;;;;7.23;6.50;;;19.10;99.90;;;;;;5089506;28;20212;-69
2023/06/29 02:24:30;;;;;;;11.67;7.20;;;19.20;99.90;;;;;;5088709;28;20177;-67
2023/06/29 02:26:56;;;;;;;8.77;6.57;;;19.10;99.90;;;;;;5090546;28;20188;-68
2023/06/29 02:29:23;;;;;;;8.73;7.30;;;19.10;99.90;;;;;;5101550;28;20430;-69
2023/06/29 02:31:49;;;;;;;6.60;5.53;;;19.00;99.90;;;;;;5109487;28;20208;-68
2023/06/29 02:34:14;;;;;;;8.70;6.53;;;19.00;99.90;;;;;;5109874;28;20394;-69
2023/06/29 02:36:40;;;;;;;6.20;5.60;;;18.90;99.90;;;;;;5110830;28;20263;-67
2023/06/29 02:39:07;;;;;;;7.40;6.50;;;18.90;99.90;;;;;;5110746;27;20172;-69
2023/06/29 02:41:32;;;;;;;8.13;6.40;;;18.80;99.90;;;;;;5109262;27;20413;-68
2023/06/29 02:43:58;;;;;;;9.00;6.47;;;18.70;99.90;;;;;;5108493;28;20413;-68
2023/06/29 02:46:24;;;;;;;7.23;5.90;;;18.70;99.90;;;;;;5110738;28;20176;-68
2023/06/29 02:48:49;;;;;;;7.10;5.93;;;18.70;99.90;;;;;;5110489;28;20596;-67
2023/06/29 02:51:15;;;;;;;9.43;6.40;;;18.70;99.90;;;;;;5109200;28;20203;-68
2023/06/29 02:53:41;;;;;;;8.07;6.30;;;18.70;99.90;;;;;;5109461;28;20183;-69
2023/06/29 02:56:06;;;;;;;7.67;6.43;;;18.70;99.90;;;;;;5110478;27;20189;-68
2023/06/29 02:58:32;;;;;;;10.37;6.33;;;18.60;99.90;;;;;;5096143;28;20176;-69
2023/06/29 03:00:58;;;;;;;7.03;6.33;;;18.70;99.90;;;;;;5089972;28;20200;-68
2023/06/29 03:03:23;;;;;;;9.50;6.73;;;18.70;99.90;;;;;;5088809;28;20263;-67
2023/06/29 03:05:49;;;;;;;6.80;6.10;;;18.60;99.90;;;;;;5088611;28;20191;-68
2023/06/29 03:08:15;;;;;;;8.80;5.73;;;18.60;99.90;;;;;;5089889;28;20180;-68
2023/06/29 03:10:40;;;;;;;8.97;6.03;;;18.70;99.90;;;;;;5089791;28;20223;-68
2023/06/29 03:13:06;;;;;;;7.97;6.17;;;18.70;99.90;;;;;;5088795;28;20164;-69
2023/06/29 03:15:32;;;;;;;7.00;6.27;;;18.80;99.90;;;;;;5089702;28;20655;-68
2023/06/29 03:17:57;;;;;;;6.23;5.63;;;18.90;99.90;;;;;;5089664;28;20763;-69
2023/06/29 03:20:23;;;;;;;8.23;6.73;;;18.90;99.90;;;;;;5089508;28;20578;-68
2023/06/29 03:22:49;;;;;;;8.70;6.60;;;19.00;99.90;;;;;;5086916;28;20698;-68
2023/06/29 03:25:15;;;;;;;8.60;7.47;;;19.00;99.90;;;;;;5089377;28;20693;-69
2023/06/29 03:27:40;;;;;;;8.30;6.47;;;19.00;99.90;;;;;;5089364;28;20545;-69
2023/06/29 03:30:07;;;;;;;7.50;6.80;;;19.00;99.90;;;;;;5106878;28;20211;-69
2023/06/29 03:32:32;;;;;;;7.73;6.60;;;19.10;99.90;;;;;;5108997;28;20191;-68
2023/06/29 03:34:58;;;;;;;8.80;6.60;;;19.10;99.90;;;;;;5109520;28;20406;-69
2023/06/29 03:37:24;;;;;;;7.47;6.07;;;19.00;99.90;;;;;;5109497;28;20180;-69
2023/06/29 03:39:49;;;;;;;9.70;6.40;;;19.10;99.90;;;;;;5109739;28;20218;-68
2023/06/29 03:42:15;;;;;;;7.10;6.50;;;19.10;99.90;;;;;;5107410;28;20179;-69
2023/06/29 03:44:41;;;;;;;6.67;5.83;;;19.10;99.90;;;;;;5109009;28;20203;-69
2023/06/29 03:47:07;;;;;;;7.07;6.30;;;19.10;99.90;;;;;;5109620;28;20629;-69
2023/06/29 03:49:33;;;;;;;7.03;6.33;;;19.20;99.90;;;;;;5109270;28;20206;-69
2023/06/29 03:51:59;;;;;;;7.70;6.40;;;19.20;99.90;;;;;;5107574;28;20176;-69
2023/06/29 03:54:26;;;;;;;8.50;6.37;;;19.20;99.90;;;;;;5108956;28;20449;-70
2023/06/29 03:56:52;;;;;;;10.43;5.70;;;19.20;99.90;;;;;;5108731;28;20492;-69
2023/06/29 03:59:18;;;;;;;7.80;6.47;;;19.20;99.90;;;;;;5089250;28;20521;-68
2023/06/29 04:01:43;;;;;;;6.73;6.00;;;19.30;99.90;;;;;;5088928;28;20176;-69
2023/06/29 04:04:09;;;;;;;8.20;6.53;;;19.30;99.90;;;;;;5087862;28;20210;-69
2023/06/29 04:06:34;;;;;;;6.20;5.60;;;19.20;99.90;;;;;;5088988;28;20237;-68
2023/06/29 04:09:00;;;;;;;7.83;6.43;;;19.30;99.90;;;;;;5088874;28;20176;-69
2023/06/29 04:11:26;;;;;;;6.33;5.73;;;19.30;99.90;;;;;;5088757;28;20235;-68
2023/06/29 04:13:51;;;;;;;6.77;5.90;;;19.40;99.90;;;;;;5087894;28;20534;-68
2023/06/29 04:16:17;;;;;;;8.50;6.10;;;19.40;99.90;;;;;;5088958;28;20208;-69
2023/06/29 04:18:43;;;;;;;6.53;5.67;;;19.40;99.90;;;;;;5088909;28;20157;-69
2023/06/29 04:21:09;;;;;;;6.40;5.80;;;19.40;99.90;;;;;;5086554;28;20824;-68
2023/06/29 04:23:34;;;;;;;7.67;5.97;;;19.30;99.90;;;;;;5084201;28;20434;-69
2023/06/29 04:26:03;;;;;;;7.03;6.20;;;19.40;99.90;;;;;;5082902;28;20188;-69
2023/06/29 04:28:30;;;;;;;8.80;6.03;;;19.40;99.90;;;;;;5088205;28;20927;-68
2023/06/29 04:30:55;;;;;;;6.27;5.67;;;19.40;99.90;;;;;;5085701;28;20478;-68
2023/06/29 04:33:21;;;;;;;7.47;5.90;;;19.30;99.90;;;;;;5077370;28;20500;-69
2023/06/29 04:35:47;;;;;;;9.33;5.60;;;19.40;99.90;;;;;;5086015;28;20661;-69
2023/06/29 04:38:13;;;;;;;6.67;5.50;;;19.40;99.90;;;;;;5092623;28;20176;-69
2023/06/29 04:40:39;;;;;;;7.20;5.60;;;19.40;99.90;;;;;;5085136;28;20811;-68
2023/06/29 04:43:06;;;;;;;6.27;5.70;;;19.40;99.90;;;;;;5088905;28;20644;-69
2023/06/29 04:45:33;;;;;;;7.33;6.60;;;19.40;99.90;;;;;;5092008;28;20486;-68
2023/06/29 04:47:59;;;;;;;5.63;5.00;;;19.40;99.90;;;;;;5092514;28;20509;-69
2023/06/29 04:50:31;;;;;;;6.30;5.67;;;19.40;99.90;;;;;;5091451;28;20483;-68
2023/06/29 04:53:09;;;;;;;7.93;5.47;;;19.40;99.90;;;;;;5091619;28;20418;-69
2023/06/29 04:55:36;;;;;;;6.70;6.03;;;19.40;99.90;;;;;;5092742;28;20413;-68
2023/06/29 04:58:03;;;;;;;8.20;6.27;;;19.40;99.90;;;;;;5092188;28;20418;-68
2023/06/29 05:00:29;;;;;;;7.20;5.97;;;19.40;99.90;;;;;;5092282;28;20437;-68
2023/06/29 05:02:55;;;;;;;9.20;6.57;;;19.50;99.90;;;;;;5091418;28;20436;-69
2023/06/29 05:05:21;;;;;;;6.63;5.80;;;19.40;99.90;;;;;;5092138;28;20430;-68
2023/06/29 05:07:47;;;;;;;6.70;5.90;;;19.40;99.90;;;;;;5092253;28;20180;-69
2023/06/29 05:10:12;;;;;;;7.67;5.93;;;19.40;99.90;;;;;;5092074;28;20212;-68
2023/06/29 05:12:38;;;;;;;7.70;6.73;;;19.40;99.90;;;;;;5091058;28;21239;-68
2023/06/29 05:15:04;;;;;;;6.10;5.60;;;19.40;99.90;;;;;;5091829;28;20310;-69
2023/06/29 05:17:30;;;;;;;7.27;5.63;;;19.40;99.90;;;;;;5090796;28;20183;-69
2023/06/29 05:19:55;;;;;;;9.47;7.17;;;19.40;99.90;;;;;;5091840;28;20422;-68
2023/06/29 05:22:21;;;;;;;6.97;6.13;;;19.40;99.90;;;;;;5091131;28;20259;-69
2023/06/29 05:24:46;;;;;;;7.90;6.43;;;19.50;99.90;;;;;;5091572;28;20181;-68
2023/06/29 05:27:12;;;;;;;6.50;5.87;;;19.50;99.90;;;;;;5089482;28;20512;-68
2023/06/29 05:29:38;;;;;;;10.70;6.77;;;19.50;99.90;;;;;;5091655;28;20322;-67
2023/06/29 05:32:04;;;;;;;7.90;6.97;;;19.60;99.90;;;;;;5089628;28;20172;-68
2023/06/29 05:34:30;;;;;;;6.87;6.23;;;19.60;99.90;;;;;;5080598;28;20181;-69
2023/06/29 05:36:56;;;;;;;6.70;6.10;;;19.60;99.90;;;;;;5091695;28;20939;-69
2023/06/29 05:39:21;;;;;;;7.60;6.13;;;19.70;99.90;;;;;;5087457;28;20200;-68
2023/06/29 05:41:48;;;;;;;7.83;6.80;;;19.70;99.90;;;;;;5089179;28;21863;-68
2023/06/29 05:44:14;;;;;;;9.47;7.07;;;19.70;99.90;;;;;;5080276;28;20552;-68
2023/06/29 05:46:39;;;;;;;7.10;6.23;;;19.70;99.90;;;;;;5091112;28;20431;-68
2023/06/29 05:49:05;;;;;;;7.47;6.70;;;19.70;99.90;;;;;;5089112;28;20649;-69
2023/06/29 05:51:32;;;;;;;7.10;6.30;;;19.80;99.90;;;;;;5084789;28;20241;-68
2023/06/29 05:53:58;;;;;;;11.20;7.43;;;19.80;99.90;;;;;;5089828;28;20184;-68
2023/06/29 05:56:23;;;;;;;10.60;7.00;;;19.80;99.90;;;;;;5091137;28;20818;-68
2023/06/29 05:58:49;;;;;;;8.47;7.40;;;19.80;99.90;;;;;;5089604;28;20203;-68
2023/06/29 06:01:15;;;;;;;7.73;6.93;;;19.80;99.90;;;;;;5088515;28;20201;-69
2023/06/29 06:03:41;;;;;;;8.27;7.20;;;19.80;99.90;;;;;;5084988;28;20204;-69
2023/06/29 06:06:06;;;;;;;8.23;6.73;;;19.80;99.90;;;;;;5090767;28;20640;-69
2023/06/29 06:08:33;;;;;;;6.87;6.17;;;19.90;99.90;;;;;;5081258;28;20191;-68
2023/06/29 06:10:58;;;;;;;10.63;7.10;;;20.00;99.90;;;;;;5077091;28;20200;-69
2023/06/29 06:13:24;;;;;;;9.97;6.40;;;20.00;99.90;;;;;;5082112;28;20477;-69
2023/06/29 06:15:50;;;;;;;8.53;6.50;;;20.10;99.90;;;;;;5083892;28;20493;-68
2023/06/29 06:18:16;;;;;;;7.23;6.53;;;20.10;99.90;;;;;;5078505;28;20200;-68
2023/06/29 06:20:41;;;;;;;12.53;6.77;;;20.20;99.90;;;;;;5070746;28;20651;-69
2023/06/29 06:23:07;;;;;;;7.53;6.40;;;20.20;99.90;;;;;;5069774;28;20234;-69
2023/06/29 06:25:33;;;;;;;7.23;6.20;;;20.20;99.90;;;;;;5070674;28;20238;-69
2023/06/29 06:27:58;;;;;;;6.37;5.77;;;20.20;99.90;;;;;;5070427;28;20181;-69
2023/06/29 06:30:24;;;;;;;9.53;6.60;;;20.30;99.90;;;;;;5110225;28;20211;-68
2023/06/29 06:32:50;;;;;;;6.50;5.83;;;20.30;99.90;;;;;;5110365;28;20172;-68
2023/06/29 06:35:16;;;;;;;12.47;6.47;;;20.40;99.90;;;;;;5110658;28;20229;-69
2023/06/29 06:37:42;;;;;;;7.20;6.50;;;20.40;99.90;;;;;;5110887;28;20175;-69
2023/06/29 06:40:11;;;;;;;7.83;6.30;;;20.40;99.90;;;;;;5107448;28;20436;-69
2023/06/29 06:42:38;;;;;;;7.13;6.33;;;20.50;99.90;;;;;;5078670;28;21177;-69
2023/06/29 06:45:05;;;;;;;8.30;5.70;;;20.50;99.90;;;;;;5078814;28;20415;-68
2023/06/29 06:47:32;;;;;;;8.20;6.40;;;20.60;99.90;;;;;;5080650;28;20455;-68
2023/06/29 06:50:02;;;;;;;8.90;5.30;;;20.60;99.90;;;;;;5087844;28;20454;-68
2023/06/29 06:52:28;;;;;;;7.37;5.77;;;20.60;99.90;;;;;;5089665;28;20402;-69
2023/06/29 06:54:54;;;;;;;6.60;5.30;;;20.60;99.90;;;;;;5089669;28;20414;-68
2023/06/29 06:57:20;;;;;;;6.70;5.53;;;20.70;99.90;;;;;;5071497;28;20200;-68
2023/06/29 06:59:46;;;;;;;8.60;6.27;;;20.70;99.90;;;;;;5089888;28;20454;-68
2023/06/29 07:02:12;;;;;;;9.77;5.90;;;20.70;99.90;;;;;;5089507;28;20411;-68
2023/06/29 07:04:38;;;;;;;8.20;6.43;;;20.80;99.90;;;;;;5089490;28;20423;-68
2023/06/29 07:07:04;;;;;;;6.40;5.80;;;20.90;99.90;;;;;;5089893;28;20422;-68
2023/06/29 07:09:30;;;;;;;8.20;6.60;;;20.90;99.90;;;;;;5089245;28;20419;-68
2023/06/29 07:11:56;;;;;;;6.80;6.00;;;21.00;99.90;;;;;;5083416;28;20981;-68
2023/06/29 07:14:21;;;;;;;8.20;5.63;;;21.00;99.90;;;;;;5079111;28;20188;-68
2023/06/29 07:16:48;;;;;;;8.47;6.10;;;21.00;99.90;;;;;;5081618;28;20180;-69
2023/06/29 07:19:14;;;;;;;9.47;6.47;;;21.10;99.90;;;;;;5068992;28;20177;-68
2023/06/29 07:21:40;;;;;;;6.50;5.73;;;21.10;99.90;;;;;;5069228;28;20412;-68
2023/06/29 07:24:07;;;;;;;8.23;5.80;;;21.20;99.90;;;;;;5068252;28;20427;-68
2023/06/29 07:26:32;;;;;;;8.40;6.13;;;21.10;99.90;;;;;;5069068;28;20443;-68
2023/06/29 07:28:58;;;;;;;10.07;6.00;;;21.20;99.90;;;;;;5084623;28;20460;-68
2023/06/29 07:31:28;;;;;;;7.17;5.70;;;21.10;99.90;;;;;;5109587;28;20200;-68
2023/06/29 07:33:55;;;;;;;11.23;5.80;;;21.10;99.90;;;;;;5108616;28;20182;-69
2023/06/29 07:36:22;;;;;;;6.90;5.80;;;21.20;99.90;;;;;;5109581;28;20437;-68
2023/06/29 07:38:48;;;;;;;5.93;4.90;;;21.20;99.90;;;;;;5109625;28;20414;-69
2023/06/29 07:41:15;;;;;;;7.60;4.80;;;21.30;99.90;;;;;;5109449;28;20448;-68
2023/06/29 07:43:42;;;;;;;7.20;4.77;;;21.30;99.90;;;;;;5108540;28;20410;-68
2023/06/29 07:46:07;;;;;;;14.43;5.53;;;21.40;99.90;;;;;;5109351;28;20497;-68
2023/06/29 07:48:33;;;;;;;6.40;5.10;;;21.50;99.90;;;;;;5109453;28;20500;-68
2023/06/29 07:50:59;;;;;;;6.23;4.47;;;21.50;99.90;;;;;;5091634;27;20214;-68
2023/06/29 07:53:25;;;;;;;5.00;4.60;;;21.50;99.90;;;;;;5069863;28;20177;-67
2023/06/29 07:55:51;;;;;;;8.73;4.63;;;21.50;99.90;;;;;;5088782;28;20230;-68
2023/06/29 07:58:17;;;;;;;5.37;4.53;;;21.50;99.90;;;;;;5087870;28;21005;-68
2023/06/29 08:00:43;;;;;;;6.20;4.67;;;21.50;99.90;;;;;;5088791;28;20203;-68
2023/06/29 08:03:09;;;;;;;5.77;5.00;;;21.50;99.90;;;;;;5088156;28;20410;-68
2023/06/29 08:05:34;;;;;;;4.97;4.33;;;21.50;99.90;;;;;;5088988;28;20569;-68
2023/06/29 08:08:00;;;;;;;5.57;4.33;;;21.50;99.90;;;;;;5088461;28;20239;-68
2023/06/29 08:10:25;;;;;;;6.83;4.50;;;21.50;99.90;;;;;;5088635;28;20215;-68
2023/06/29 08:12:52;;;;;;;5.87;4.00;;;21.40;99.90;;;;;;5087751;28;20180;-68
2023/06/29 08:15:17;;;;;;;5.30;4.30;;;21.40;99.90;;;;;;5088639;28;20187;-68
2023/06/29 08:17:43;;;;;;;6.60;4.40;;;21.40;99.90;;;;;;5088583;28;20791;-68
2023/06/29 08:20:12;;;;;;;8.17;4.97;;;21.40;99.90;;;;;;5087342;28;20567;-68
2023/06/29 08:22:38;;;;;;;6.00;4.07;;;21.40;99.90;;;;;;5086894;28;20181;-68
2023/06/29 08:25:04;;;;;;;4.60;3.90;;;21.40;99.90;;;;;;5088295;28;20415;-68
2023/06/29 08:27:30;;;;;;;6.07;4.80;;;21.40;99.90;;;;;;5088505;28;20403;-68
2023/06/29 08:29:56;;;;;;;7.07;4.73;;;21.40;99.90;;;;;;5088277;28;20484;-68
2023/06/29 08:32:22;;;;;;;5.37;4.10;;;21.40;99.90;;;;;;5087687;28;20954;-68
2023/06/29 08:34:47;;;;;;;6.27;4.93;;;21.40;99.90;;;;;;5087771;28;20907;-68
2023/06/29 08:37:13;;;;;;;5.13;4.57;;;21.40;99.90;;;;;;5088610;28;20165;-68
2023/06/29 08:39:39;;;;;;;5.93;4.30;;;21.40;99.90;;;;;;5087475;28;20237;-68
2023/06/29 08:42:05;;;;;;;7.07;4.43;;;21.50;99.90;;;;;;5087905;28;20410;-68
2023/06/29 08:44:31;;;;;;;5.50;4.50;;;21.50;99.90;;;;;;5087835;28;20288;-68
2023/06/29 08:47:00;;;;;;;5.80;4.80;;;21.60;99.90;;;;;;5088453;28;20410;-68
2023/06/29 08:49:27;;;;;;;4.70;4.27;;;21.70;99.90;;;;;;5088438;28;20295;-68
2023/06/29 08:51:58;;;;;;;5.30;4.80;;;21.70;99.90;;;;;;5088400;28;20480;-68
2023/06/29 08:54:26;;;;;;;7.70;4.90;;;21.70;99.90;;;;;;5087990;28;20426;-68
2023/06/29 08:56:52;;;;;;;7.57;4.77;;;21.80;99.90;;;;;;5087816;28;21491;-68
2023/06/29 08:59:19;;;;;;;7.47;4.60;;;21.80;99.90;;;;;;5088285;28;20790;-68
2023/06/29 09:01:46;;;;;;;5.10;4.60;;;21.90;99.90;;;;;;5088293;28;20560;-68
2023/06/29 09:04:11;;;;;;;6.50;4.83;;;21.80;99.90;;;;;;5087327;28;20507;-68
2023/06/29 09:06:40;;;;;;;6.67;4.70;;;21.90;99.90;;;;;;5088216;28;20465;-68
2023/06/29 09:09:07;;;;;;;8.90;4.77;;;21.90;99.90;;;;;;5088296;28;20685;-68
2023/06/29 09:11:33;;;;;;;8.47;4.50;;;21.90;99.90;;;;;;5088192;28;20445;-68
2023/06/29 09:14:04;;;;;;;6.37;4.13;;;21.90;99.90;;;;;;5087527;28;20907;-68
2023/06/29 09:16:30;;;;;;;5.77;4.77;;;21.90;99.90;;;;;;5088128;28;20438;-68
2023/06/29 09:18:57;;;;;;;7.07;4.67;;;21.90;99.90;;;;;;5088303;28;20417;-68
2023/06/29 09:21:25;;;;;;;8.30;5.10;;;22.00;99.90;;;;;;5090507;28;20434;-68
2023/06/29 09:23:54;;;;;;;4.50;4.10;;;22.00;99.90;;;;;;5090658;28;20429;-68
2023/06/29 09:26:25;;;;;;;6.57;4.97;;;22.00;99.90;;;;;;5091780;28;20826;-68
2023/06/29 09:28:57;;;;;;;7.43;4.63;;;22.10;99.90;;;;;;5091694;28;20947;-68
2023/06/29 09:31:26;;;;;;;8.70;5.27;;;22.10;99.90;;;;;;5091582;28;20536;-68
2023/06/29 09:33:52;;;;;;;7.80;5.30;;;22.10;99.90;;;;;;5090616;28;20414;-68
2023/06/29 09:36:25;;;;;;;6.23;5.63;;;22.10;99.90;;;;;;5091618;28;20456;-68
2023/06/29 09:38:52;;;;;;;5.33;4.77;;;22.10;99.90;;;;;;5091684;28;20172;-68
2023/06/29 09:41:17;;;;;;;6.67;4.97;;;22.10;99.90;;;;;;5091268;28;20430;-68
2023/06/29 09:43:45;;;;;;;6.90;5.00;;;22.10;99.90;;;;;;5090426;28;20802;-68
2023/06/29 09:46:12;;;;;;;7.80;4.97;;;22.20;99.90;;;;;;5091516;28;20168;-68
2023/06/29 09:48:45;;;;;;;8.80;5.80;;;22.20;99.90;;;;;;5091268;28;20411;-68
2023/06/29 09:51:18;;;;;;;11.10;5.27;;;22.20;99.90;;;;;;5091311;28;20508;-68
2023/06/29 09:53:45;;;;;;;6.90;5.80;;;22.20;99.90;;;;;;5090120;28;20521;-68
2023/06/29 09:56:10;;;;;;;8.23;5.37;;;22.30;99.90;;;;;;5091393;28;20468;-68
2023/06/29 09:58:37;;;;;;;7.33;5.27;;;22.30;99.90;;;;;;5089906;28;20781;-68
2023/06/29 10:01:03;;;;;;;10.47;5.63;;;22.30;99.90;;;;;;5091220;28;20643;-68
2023/06/29 10:03:31;;;;;;;9.50;5.87;;;22.30;99.90;;;;;;5090021;28;20406;-68
2023/06/29 10:06:13;;;;;;;5.63;4.93;;;22.30;99.90;;;;;;5091184;28;20421;-68
2023/06/29 10:08:42;;;;;;;7.57;5.87;;;22.20;99.90;;;;;;5090999;28;20414;-68
2023/06/29 10:11:08;;;;;;;7.83;6.40;;;22.20;99.90;;;;;;5090870;28;20565;-68
2023/06/29 10:13:38;;;;;;;8.60;6.30;;;22.20;99.90;;;;;;5089847;28;20478;-68
2023/06/29 10:16:08;;;;;;;8.43;6.20;;;22.20;99.90;;;;;;5091110;28;20406;-68
2023/06/29 10:18:39;;;;;;;7.10;6.43;;;22.20;99.90;;;;;;5090590;28;20403;-68
2023/06/29 10:21:05;;;;;;;7.70;6.07;;;22.20;99.90;;;;;;5089795;28;20615;-68
2023/06/29 10:23:31;;;;;;;9.93;6.80;;;22.20;99.90;;;;;;5089607;28;20449;-68
2023/06/29 10:26:00;;;;;;;9.57;6.33;;;22.10;99.90;;;;;;5090804;28;20418;-68
2023/06/29 10:28:26;;;;;;;7.57;6.00;;;22.10;99.90;;;;;;5090136;28;21084;-68
2023/06/29 10:30:58;;;;;;;6.87;6.07;;;22.10;99.90;;;;;;5084929;28;20547;-68
2023/06/29 10:33:23;;;;;;;6.70;6.10;;;22.10;99.90;;;;;;5078314;28;20474;-68
2023/06/29 10:36:01;;;;;;;9.70;6.40;;;22.10;99.90;;;;;;5084072;28;20486;-68
2023/06/29 10:38:34;;;;;;;10.10;6.60;;;22.20;99.90;;;;;;5080149;28;20936;-68
2023/06/29 10:41:00;;;;;;;7.13;6.37;;;22.20;99.90;;;;;;5077182;28;20525;-68
2023/06/29 10:43:27;;;;;;;9.80;7.03;;;22.20;99.90;;;;;;5085172;28;20415;-68
2023/06/29 10:45:53;;;;;;;9.03;6.40;;;22.20;99.90;;;;;;5083302;28;20468;-68
2023/06/29 10:48:20;;;;;;;10.53;7.70;;;22.30;99.90;;;;;;5082148;28;20427;-68
2023/06/29 10:50:49;;;;;;;12.30;8.00;;;22.30;99.90;;;;;;5080775;28;20211;-68
2023/06/29 10:53:17;;;;;;;9.33;6.90;;;22.40;99.90;;;;;;5081477;28;20457;-68
2023/06/29 10:55:56;;;;;;;9.53;8.30;;;22.40;99.90;;;;;;5087766;28;20421;-68
2023/06/29 10:58:37;;;;;;;14.77;8.37;;;22.40;99.90;;;;;;5077547;28;20924;-68
2023/06/29 11:01:03;;;;;;;10.97;8.43;;;22.50;99.90;;;;;;5082908;28;20513;-68
2023/06/29 11:03:29;;;;;;;11.93;8.00;;;22.60;99.90;;;;;;5076946;28;20503;-68
2023/06/29 11:05:57;;;;;;;12.03;8.50;;;22.70;99.90;;;;;;5078464;28;20233;-68
2023/06/29 11:08:24;;;;;;;11.17;8.53;;;22.80;99.90;;;;;;5084598;28;20183;-68
2023/06/29 11:10:50;;;;;;;12.57;8.30;;;22.90;99.90;;;;;;5083545;28;20865;-68
2023/06/29 11:13:19;;;;;;;11.57;9.73;;;23.00;99.90;;;;;;5081268;28;20830;-69
2023/06/29 11:15:52;;;;;;;13.30;9.57;;;23.00;99.90;;;;;;5081738;28;20498;-68
2023/06/29 11:18:19;;;;;;;11.47;9.70;;;23.10;99.90;;;;;;5081410;28;20433;-68
2023/06/29 11:20:45;;;;;;;10.73;9.63;;;23.10;99.90;;;;;;5080950;28;20510;-68
2023/06/29 11:23:10;;;;;;;11.13;8.93;;;23.30;99.90;;;;;;5083964;28;20501;-68
2023/06/29 11:25:36;;;;;;;11.03;8.60;;;23.40;99.90;;;;;;5078415;28;20209;-68
2023/06/29 11:28:03;;;;;;;9.70;7.97;;;23.60;99.90;;;;;;5083824;28;20267;-68
2023/06/29 11:30:28;;;;;;;12.37;9.10;;;23.80;99.90;;;;;;5080639;28;20502;-68
2023/06/29 11:32:54;;;;;;;13.90;8.50;;;24.00;99.90;;;;;;5088234;28;20935;-68
2023/06/29 11:35:21;;;;;;;10.17;8.40;;;24.10;99.90;;;;;;5085016;28;20177;-68
2023/06/29 11:38:06;;;;;;;11.30;8.03;;;24.20;99.90;;;;;;5079519;28;20784;-69
2023/06/29 11:40:32;;;;;;;11.30;9.07;;;24.20;99.90;;;;;;5081418;28;20431;-69
2023/06/29 11:42:59;;;;;;;10.20;8.43;;;24.20;99.90;;;;;;5079156;28;20468;-68
2023/06/29 11:45:24;;;;;;;11.30;8.30;;;24.30;99.90;;;;;;5078405;28;20276;-68
2023/06/29 11:47:54;;;;;;;9.67;8.17;;;24.30;99.90;;;;;;5086093;28;20519;-69
2023/06/29 11:50:19;;;;;;;12.40;8.70;;;24.30;99.90;;;;;;5077875;28;20205;-68
2023/06/29 11:52:46;;;;;;;10.20;9.07;;;24.30;99.90;;;;;;5084720;28;20957;-69
2023/06/29 11:55:14;;;;;;;14.27;9.00;;;24.30;99.90;;;;;;5083072;28;20173;-68
2023/06/29 11:57:42;;;;;;;11.50;9.93;;;24.30;99.90;;;;;;5084013;28;20418;-69
2023/06/29 12:00:14;;;;;;;13.90;9.80;;;24.30;99.90;;;;;;5080143;28;20426;-68
2023/06/29 12:02:43;;;;;;;11.67;9.33;;;24.20;99.90;;;;;;5082851;28;20418;-68
2023/06/29 12:05:10;;;;;;;12.60;9.97;;;24.20;99.90;;;;;;5079939;28;20448;-68
2023/06/29 12:07:43;;;;;;;13.87;9.80;;;24.20;99.90;;;;;;5087483;28;20430;-68
2023/06/29 12:10:18;;;;;;;12.57;10.00;;;24.10;99.90;;;;;;5083840;28;20477;-68
2023/06/29 12:12:48;;;;;;;12.00;9.60;;;24.10;99.90;;;;;;5079709;28;20411;-68
2023/06/29 12:15:21;;;;;;;12.50;10.43;;;24.00;99.90;;;;;;5083655;28;20461;-68
2023/06/29 12:17:50;;;;;;;11.87;10.20;;;23.90;99.90;;;;;;5080805;28;20820;-68
2023/06/29 12:20:24;;;;;;;12.20;9.70;;;23.80;99.90;;;;;;5082546;28;20521;-68
2023/06/29 12:22:55;;;;;;;13.50;10.20;;;23.70;99.90;;;;;;5082408;28;20995;-69
2023/06/29 12:25:21;;;;;;;14.33;9.60;;;23.60;99.90;;;;;;5079894;28;20410;-69
2023/06/29 12:27:49;;;;;;;17.17;10.53;;;23.50;99.90;;;;;;5082351;28;20484;-69
2023/06/29 12:30:17;;;;;;;13.57;11.20;;;23.50;99.90;;;;;;5081659;28;21022;-69
2023/06/29 12:32:45;;;;;;;12.00;10.27;;;23.50;99.90;;;;;;5079575;28;20419;-69
2023/06/29 12:35:13;;;;;;;15.33;12.67;;;23.40;99.90;;;;;;5083653;28;20494;-69
2023/06/29 12:37:38;;;;;;;15.37;12.93;;;23.30;99.90;;;;;;5085401;28;20457;-69
2023/06/29 12:40:06;;;;;;;15.13;12.20;;;23.30;99.90;;;;;;5080073;28;20463;-69
2023/06/29 12:42:33;;;;;;;16.60;12.80;;;23.20;99.90;;;;;;5082806;28;20985;-69
2023/06/29 12:45:02;;;;;;;17.40;12.77;;;23.10;99.90;;;;;;5082452;28;20406;-69